createdAt,value
2022-08-14T00:00:41.776Z,70.92
2022-08-14T00:01:41.764Z,71.85
2022-08-14T00:02:43.025Z,71.85
2022-08-14T00:03:41.760Z,71.55
2022-08-14T00:04:44.578Z,72.55
2022-08-14T00:05:44.142Z,72.25
2022-08-14T00:06:41.704Z,72.55
2022-08-14T00:07:41.841Z,72.35
2022-08-14T00:08:43.756Z,72.28
2022-08-14T00:09:55.680Z,72.58
2022-08-14T00:10:52.437Z,72.68
2022-08-14T00:11:43.630Z,72.78
2022-08-14T00:12:41.637Z,72.88
2022-08-14T00:13:41.645Z,72.68
2022-08-14T00:14:41.615Z,72.68
2022-08-14T00:15:44.147Z,72.68
2022-08-14T00:16:44.866Z,72.68
2022-08-14T00:17:47.526Z,72.68
2022-08-14T00:19:06.306Z,72.58
2022-08-14T00:19:42.580Z,72.68
2022-08-14T00:20:43.317Z,72.38
2022-08-14T00:21:41.650Z,72.58
2022-08-14T00:22:56.445Z,72.38
2022-08-14T00:23:42.518Z,73.08
2022-08-14T00:24:41.524Z,72.88
2022-08-14T00:25:42.726Z,72.68
2022-08-14T00:26:41.526Z,73.18
2022-08-14T00:27:41.473Z,73.08
2022-08-14T00:28:41.488Z,73.18
2022-08-14T00:29:43.133Z,73.18
2022-08-14T00:30:42.685Z,73.28
2022-08-14T00:31:44.211Z,73.08
2022-08-14T00:32:55.788Z,73.18
2022-08-14T00:33:51.955Z,73.22
2022-08-14T00:34:46.986Z,73.28
2022-08-14T00:36:35.669Z,72.88
2022-08-14T00:36:48.488Z,73.18
2022-08-14T00:37:42.362Z,73.18
2022-08-14T00:38:42.118Z,72.78
2022-08-14T00:39:42.600Z,73.68
2022-08-14T00:40:41.323Z,73.91
2022-08-14T00:41:42.481Z,73.38
2022-08-14T00:42:52.637Z,73.91
2022-08-14T00:43:45.617Z,73.61
2022-08-14T00:44:41.296Z,73.82
2022-08-14T00:45:41.276Z,74.32
2022-08-14T00:46:41.260Z,74.32
2022-08-14T00:47:44.942Z,74.21
2022-08-14T00:48:41.240Z,74.21
2022-08-14T00:49:43.124Z,74.02
2022-08-14T00:50:41.220Z,74.02
2022-08-14T00:51:41.233Z,74.11
2022-08-14T00:52:41.194Z,74.02
2022-08-14T00:53:42.922Z,74.21
2022-08-14T00:54:41.196Z,74.21
2022-08-14T00:55:41.161Z,74.21
2022-08-14T00:56:41.151Z,74.41
2022-08-14T00:57:41.157Z,74.21
2022-08-14T00:58:45.147Z,74.32
2022-08-14T00:59:42.127Z,74.55
2022-08-14T01:00:47.194Z,74.45
2022-08-14T01:01:42.153Z,74.25
2022-08-14T01:02:41.088Z,74.71
2022-08-14T01:03:42.429Z,74.55
2022-08-14T01:04:53.470Z,74.55
2022-08-14T01:05:51.540Z,74.41
2022-08-14T01:06:42.056Z,74.65
2022-08-14T01:07:54.141Z,74.45
2022-08-14T01:08:52.138Z,74.51
2022-08-14T01:09:42.004Z,74.95
2022-08-14T01:10:41.015Z,74.25
2022-08-14T01:11:40.984Z,74.91
2022-08-14T01:12:40.985Z,74.85
2022-08-14T01:13:42.933Z,74.95
2022-08-14T01:14:40.961Z,74.95
2022-08-14T01:15:57.987Z,74.75
2022-08-14T01:16:42.015Z,74.85
2022-08-14T01:17:45.732Z,74.85
2022-08-14T01:18:41.904Z,74.95
2022-08-14T01:19:41.291Z,74.85
2022-08-14T01:20:41.414Z,74.65
2022-08-14T01:21:46.873Z,74.65
2022-08-14T01:22:42.990Z,74.75
2022-08-14T01:23:46.755Z,74.91
2022-08-14T01:24:41.957Z,74.95
2022-08-14T01:25:41.641Z,74.91
2022-08-14T01:26:40.850Z,74.21
2022-08-14T01:27:57.190Z,74.91
2022-08-14T01:28:56.140Z,74.85
2022-08-14T01:30:03.288Z,74.81
2022-08-14T01:30:41.777Z,74.91
2022-08-14T01:31:40.787Z,74.21
2022-08-14T01:32:42.556Z,74.41
2022-08-14T01:35:16.428Z,74.81
2022-08-14T01:35:20.263Z,75.01
2022-08-14T01:36:05.143Z,75.25
2022-08-14T01:36:41.763Z,75.31
2022-08-14T01:37:44.098Z,75.41
2022-08-14T01:38:40.695Z,75.25
2022-08-14T01:39:40.714Z,75.61
2022-08-14T01:40:41.935Z,75.55
2022-08-14T01:41:40.672Z,75.45
2022-08-14T01:42:40.707Z,75.45
2022-08-14T01:43:40.637Z,75.51
2022-08-14T01:44:41.649Z,75.45
2022-08-14T01:45:41.614Z,75.31
2022-08-14T01:46:40.627Z,74.91
2022-08-14T01:47:40.598Z,75.21
2022-08-14T01:48:40.588Z,75.31
2022-08-14T01:49:46.492Z,74.71
2022-08-14T01:50:41.574Z,74.81
2022-08-14T01:51:40.997Z,74.62
2022-08-14T01:52:58.922Z,74.51
2022-08-14T01:53:41.536Z,74.41
2022-08-14T01:54:40.533Z,74.81
2022-08-14T01:55:40.744Z,74.81
2022-08-14T01:56:40.497Z,74.81
2022-08-14T01:58:01.786Z,74.71
2022-08-14T01:58:57.196Z,74.71
2022-08-14T01:59:43.105Z,74.62
2022-08-14T02:00:40.496Z,74.62
2022-08-14T02:01:42.023Z,74.71
2022-08-14T02:02:41.477Z,74.62
2022-08-14T02:03:41.516Z,74.91
2022-08-14T02:04:57.101Z,74.41
2022-08-14T02:05:41.436Z,74.32
2022-08-14T02:06:40.389Z,74.51
2022-08-14T02:07:55.709Z,74.41
2022-08-14T02:08:52.386Z,74.51
2022-08-14T02:09:41.355Z,74.71
2022-08-14T02:10:46.803Z,74.71
2022-08-14T02:11:41.350Z,74.81
2022-08-14T02:12:40.345Z,74.71
2022-08-14T02:13:40.308Z,74.91
2022-08-14T02:14:40.399Z,74.81
2022-08-14T02:15:41.456Z,74.71
2022-08-14T02:16:40.277Z,74.71
2022-08-14T02:17:40.284Z,74.81
2022-08-14T02:18:40.263Z,74.71
2022-08-14T02:19:40.247Z,74.81
2022-08-14T02:20:40.235Z,74.62
2022-08-14T02:21:43.699Z,74.77
2022-08-14T02:22:47.292Z,75.41
2022-08-14T02:23:41.201Z,74.91
2022-08-14T02:24:45.049Z,75.11
2022-08-14T02:25:41.184Z,75.11
2022-08-14T02:28:18.568Z,75.11
2022-08-14T02:28:23.039Z,75.21
2022-08-14T02:28:56.967Z,74.91
2022-08-14T02:29:56.330Z,75.21
2022-08-14T02:30:41.132Z,75.31
2022-08-14T02:31:43.558Z,75.11
2022-08-14T02:32:40.140Z,75.41
2022-08-14T02:33:40.101Z,75.51
2022-08-14T02:34:41.421Z,75.51
2022-08-14T02:35:40.699Z,75.51
2022-08-14T02:37:05.063Z,75.51
2022-08-14T02:37:47.460Z,75.41
2022-08-14T02:39:31.352Z,75.81
2022-08-14T02:40:32.380Z,75.41
2022-08-14T02:41:36.695Z,75.81
2022-08-14T02:42:51.552Z,75.81
2022-08-14T02:43:37.177Z,75.41
2022-08-14T02:44:32.249Z,76.51
2022-08-14T02:45:33.481Z,75.74
2022-08-14T02:46:32.658Z,76.25
2022-08-14T02:47:31.227Z,76.04
2022-08-14T02:49:04.697Z,75.95
2022-08-14T02:49:34.217Z,75.95
2022-08-14T02:50:33.533Z,76.04
2022-08-14T02:51:31.174Z,76.15
2022-08-14T02:52:57.673Z,76.25
2022-08-14T02:53:33.245Z,76.11
2022-08-14T02:54:31.133Z,76.04
2022-08-14T02:55:31.182Z,75.85
2022-08-14T02:57:16.578Z,76.34
2022-08-14T02:57:39.723Z,76.34
2022-08-14T02:58:32.099Z,76.65
2022-08-14T02:59:33.811Z,77.14
2022-08-14T03:00:31.069Z,77.08
2022-08-14T03:01:43.647Z,77.08
2022-08-14T03:02:49.074Z,76.88
2022-08-14T03:03:32.042Z,77.14
2022-08-14T03:04:32.028Z,77.08
2022-08-14T03:05:35.877Z,77.04
2022-08-14T03:06:34.891Z,77.04
2022-08-14T03:07:32.019Z,77.14
2022-08-14T03:08:31.002Z,76.88
2022-08-14T03:10:26.128Z,76.65
2022-08-14T03:10:32.055Z,76.75
2022-08-14T03:11:34.631Z,76.15
2022-08-14T03:12:32.723Z,76.71
2022-08-14T03:13:30.921Z,75.85
2022-08-14T03:14:30.914Z,76.95
2022-08-14T03:15:30.916Z,76.31
2022-08-14T03:16:30.893Z,76.31
2022-08-14T03:17:31.708Z,76.15
2022-08-14T03:18:32.701Z,76.01
2022-08-14T03:19:30.876Z,76.34
2022-08-14T03:20:30.862Z,76.25
2022-08-14T03:21:30.838Z,76.34
2022-08-14T03:22:30.823Z,76.65
2022-08-14T03:23:30.816Z,76.21
2022-08-14T03:24:30.799Z,76.11
2022-08-14T03:25:30.807Z,76.25
2022-08-14T03:26:30.963Z,76.11
2022-08-14T03:27:35.520Z,76.34
2022-08-14T03:28:33.280Z,76.45
2022-08-14T03:29:30.741Z,77.01
2022-08-14T03:30:39.531Z,76.25
2022-08-14T03:31:31.729Z,76.15
2022-08-14T03:32:30.736Z,76.15
2022-08-14T03:33:37.632Z,76.45
2022-08-14T03:34:48.427Z,76.21
2022-08-14T03:35:39.822Z,76.21
2022-08-14T03:37:38.143Z,76.91
2022-08-14T03:39:09.842Z,76.25
2022-08-14T03:39:21.823Z,76.21
2022-08-14T03:39:31.673Z,76.41
2022-08-14T03:40:31.495Z,76.21
2022-08-14T03:41:33.219Z,76.41
2022-08-14T03:42:35.965Z,76.65
2022-08-14T03:43:32.455Z,77.25
2022-08-14T03:45:27.854Z,77.25
2022-08-14T03:45:33.854Z,77.34
2022-08-14T03:46:38.734Z,77.34
2022-08-14T03:47:55.916Z,76.84
2022-08-14T03:48:31.613Z,76.84
2022-08-14T03:49:31.544Z,76.84
2022-08-14T03:50:31.505Z,76.65
2022-08-14T03:51:30.500Z,76.75
2022-08-14T03:52:38.811Z,76.65
2022-08-14T03:53:31.516Z,76.65
2022-08-14T03:54:30.467Z,76.51
2022-08-14T03:55:30.739Z,76.61
2022-08-14T03:56:30.444Z,76.54
2022-08-14T03:57:30.437Z,76.75
2022-08-14T03:58:36.588Z,76.81
2022-08-14T03:59:31.467Z,76.65
2022-08-14T04:00:43.028Z,76.15
2022-08-14T04:01:39.094Z,76.41
2022-08-14T04:02:47.174Z,76.51
2022-08-14T04:03:31.372Z,76.65
2022-08-14T04:04:30.602Z,76.75
2022-08-14T04:05:38.042Z,76.95
2022-08-14T04:06:31.730Z,77.14
2022-08-14T04:07:32.849Z,77.04
2022-08-14T04:08:31.830Z,77.34
2022-08-14T04:09:30.312Z,77.04
2022-08-14T04:10:32.175Z,76.95
2022-08-14T04:11:30.286Z,77.14
2022-08-14T04:12:30.287Z,77.14
2022-08-14T04:13:31.774Z,77.34
2022-08-14T04:14:30.252Z,76.81
2022-08-14T04:15:30.244Z,76.95
2022-08-14T04:16:31.507Z,76.91
2022-08-14T04:17:30.781Z,76.75
2022-08-14T04:18:30.205Z,76.81
2022-08-14T04:19:33.058Z,77.14
2022-08-14T04:20:31.184Z,77.21
2022-08-14T04:21:30.869Z,76.95
2022-08-14T04:22:31.179Z,77.44
2022-08-14T04:23:33.313Z,76.95
2022-08-14T04:24:30.142Z,77.14
2022-08-14T04:25:30.134Z,76.84
2022-08-14T04:26:43.191Z,76.95
2022-08-14T04:27:31.126Z,77.11
2022-08-14T04:29:08.917Z,76.84
2022-08-14T04:29:32.782Z,77.04
2022-08-14T04:30:33.018Z,77.74
2022-08-14T04:32:59.274Z,78.14
2022-08-14T04:33:02.023Z,78.08
2022-08-14T04:33:32.278Z,78.28
2022-08-14T04:34:30.033Z,77.94
2022-08-14T04:35:55.987Z,78.14
2022-08-14T04:36:31.007Z,78.24
2022-08-14T04:37:31.023Z,78.24
2022-08-14T04:38:37.087Z,78.14
2022-08-14T04:39:31.269Z,78.24
2022-08-14T04:40:29.969Z,78.24
2022-08-14T04:41:30.582Z,78.04
2022-08-14T04:42:29.969Z,78.14
2022-08-14T04:43:39.194Z,78.04
2022-08-14T04:44:36.796Z,78.34
2022-08-14T04:45:30.916Z,78.04
2022-08-14T04:46:56.135Z,78.04
2022-08-14T04:47:31.083Z,78.14
2022-08-14T04:48:39.818Z,78.24
2022-08-14T04:49:30.871Z,77.74
2022-08-14T04:50:33.674Z,77.04
2022-08-14T04:51:37.422Z,77.34
2022-08-14T04:52:30.838Z,77.34
2022-08-14T04:53:34.780Z,77.25
2022-08-14T04:54:30.812Z,77.34
2022-08-14T04:55:29.806Z,77.25
2022-08-14T04:56:34.506Z,77.25
2022-08-14T04:57:30.780Z,77.25
2022-08-14T04:58:32.682Z,77.74
2022-08-14T04:59:29.769Z,77.64
2022-08-14T05:00:29.754Z,77.84
2022-08-14T05:01:29.774Z,77.44
2022-08-14T05:02:30.815Z,77.64
2022-08-14T05:03:29.759Z,77.55
2022-08-14T05:04:29.707Z,77.55
2022-08-14T05:05:29.699Z,77.21
2022-08-14T05:06:39.092Z,77.55
2022-08-14T05:07:53.850Z,77.11
2022-08-14T05:08:32.004Z,76.91
2022-08-14T05:09:30.766Z,76.07
2022-08-14T05:10:32.132Z,75.97
2022-08-14T05:11:29.752Z,76.37
2022-08-14T05:13:10.660Z,75.78
2022-08-14T05:13:38.376Z,75.14
2022-08-14T05:14:45.866Z,74.54
2022-08-14T05:15:32.006Z,74.64
2022-08-14T05:16:29.576Z,74.94
2022-08-14T05:17:43.624Z,74.94
2022-08-14T05:19:17.223Z,74.88
2022-08-14T05:19:32.618Z,75.18
2022-08-14T05:21:10.799Z,75.18
2022-08-14T05:21:59.903Z,74.84
2022-08-14T05:22:30.536Z,74.74
2022-08-14T05:23:29.503Z,74.71
2022-08-14T05:24:29.698Z,74.21
2022-08-14T05:25:30.650Z,74.41
2022-08-14T05:26:29.465Z,73.38
2022-08-14T05:27:31.311Z,73.08
2022-08-14T05:28:30.030Z,73.08
2022-08-14T05:29:29.433Z,73.14
2022-08-14T05:30:29.419Z,72.55
2022-08-14T05:31:39.384Z,72.01
2022-08-14T05:32:30.438Z,72.11
2022-08-14T05:33:29.407Z,72.01
2022-08-14T05:34:31.646Z,71.72
2022-08-14T05:35:29.375Z,71.28
2022-08-14T05:36:29.354Z,71.72
2022-08-14T05:37:29.988Z,71.42
2022-08-14T05:38:31.341Z,71.42
2022-08-14T05:39:29.413Z,71.28
2022-08-14T05:40:29.327Z,70.48
2022-08-14T05:41:52.750Z,70.85
2022-08-14T05:42:32.216Z,70.59
2022-08-14T05:43:40.653Z,70.29
2022-08-14T05:44:30.950Z,70.36
2022-08-14T05:45:29.381Z,70.48
2022-08-14T05:46:29.263Z,70.62
2022-08-14T05:47:39.361Z,70.52
2022-08-14T05:48:33.685Z,70.72
2022-08-14T05:49:33.546Z,70.72
2022-08-14T05:50:29.318Z,71.72
2022-08-14T05:51:30.666Z,72.34
2022-08-14T05:52:38.467Z,71.61
2022-08-14T05:53:32.220Z,72.51
2022-08-14T05:54:35.216Z,72.11
2022-08-14T05:55:30.165Z,72.14
2022-08-14T05:56:29.252Z,72.25
2022-08-14T05:57:29.125Z,72.11
2022-08-14T05:58:33.783Z,72.31
2022-08-14T05:59:38.602Z,72.17
2022-08-14T06:00:34.891Z,71.68
2022-08-14T06:01:31.481Z,71.28
2022-08-14T06:02:29.188Z,70.68
2022-08-14T06:03:29.065Z,70.68
2022-08-14T06:04:29.050Z,70.98
2022-08-14T06:05:29.554Z,72.38
2022-08-14T06:06:31.657Z,71.28
2022-08-14T06:07:29.026Z,70.78
2022-08-14T06:08:36.115Z,70.85
2022-08-14T06:09:29.995Z,69.96
2022-08-14T06:10:30.022Z,69.85
2022-08-14T06:11:31.086Z,69.23
2022-08-14T06:12:55.195Z,68.80
2022-08-14T06:13:31.585Z,68.70
2022-08-14T06:14:29.962Z,68.80
2022-08-14T06:15:30.658Z,68.80
2022-08-14T06:16:28.939Z,68.30
2022-08-14T06:17:28.905Z,68.66
2022-08-14T06:18:32.251Z,67.64
2022-08-14T06:19:28.898Z,68.27
2022-08-14T06:20:28.948Z,68.46
2022-08-14T06:21:28.860Z,66.91
2022-08-14T06:22:28.855Z,67.01
2022-08-14T06:23:28.875Z,66.49
2022-08-14T06:24:30.839Z,66.25
2022-08-14T06:25:29.818Z,65.10
2022-08-14T06:26:30.148Z,64.18
2022-08-14T06:27:33.858Z,63.29
2022-08-14T06:28:29.811Z,63.22
2022-08-14T06:29:32.113Z,64.44
2022-08-14T06:30:30.292Z,63.52
2022-08-14T06:31:29.752Z,63.62
2022-08-14T06:32:37.474Z,64.04
2022-08-14T06:35:01.382Z,63.82
2022-08-14T06:35:11.739Z,62.73
2022-08-14T06:35:29.718Z,63.12
2022-08-14T06:36:28.947Z,62.57
2022-08-14T06:37:28.693Z,60.83
2022-08-14T06:38:28.695Z,59.88
2022-08-14T06:39:37.358Z,59.16
2022-08-14T06:40:30.035Z,57.63
2022-08-14T06:41:56.753Z,57.63
2022-08-14T06:42:33.044Z,56.71
2022-08-14T06:43:30.330Z,56.46
2022-08-14T06:44:32.915Z,55.45
2022-08-14T06:45:28.606Z,53.83
2022-08-14T06:46:34.195Z,53.19
2022-08-14T06:47:29.581Z,52.01
2022-08-14T06:48:28.572Z,52.80
2022-08-14T06:49:30.319Z,52.06
2022-08-14T06:50:30.198Z,51.05
2022-08-14T06:51:44.444Z,50.73
2022-08-14T06:52:29.537Z,49.31
2022-08-14T06:53:28.698Z,48.58
2022-08-14T06:54:31.313Z,46.68
2022-08-14T06:55:29.301Z,47.05
2022-08-14T06:56:28.482Z,46.34
2022-08-14T06:57:28.475Z,45.85
2022-08-14T06:58:30.905Z,46.26
2022-08-14T06:59:28.453Z,47.72
2022-08-14T07:00:30.921Z,48.21
2022-08-14T07:01:28.521Z,47.60
2022-08-14T07:02:28.759Z,46.50
2022-08-14T07:03:28.406Z,47.70
2022-08-14T07:04:28.403Z,48.75
2022-08-14T07:05:28.408Z,49.80
2022-08-14T07:06:46.332Z,50.68
2022-08-14T07:07:29.371Z,50.68
2022-08-14T07:08:29.720Z,48.85
2022-08-14T07:09:40.606Z,47.60
2022-08-14T07:10:29.354Z,46.66
2022-08-14T07:11:28.331Z,45.26
2022-08-14T07:12:53.046Z,46.02
2022-08-14T07:13:30.663Z,45.51
2022-08-14T07:14:28.292Z,45.95
2022-08-14T07:15:28.519Z,44.73
2022-08-14T07:16:28.275Z,43.62
2022-08-14T07:17:28.263Z,42.58
2022-08-14T07:18:28.266Z,41.36
2022-08-14T07:19:28.246Z,40.44
2022-08-14T07:20:30.821Z,39.65
2022-08-14T07:21:29.083Z,39.43
2022-08-14T07:22:32.699Z,38.83
2022-08-14T07:23:28.207Z,37.92
2022-08-14T07:24:31.471Z,36.84
2022-08-14T07:25:32.958Z,37.48
2022-08-14T07:26:29.542Z,37.00
2022-08-14T07:27:28.173Z,36.88
2022-08-14T07:28:29.176Z,35.80
2022-08-14T07:29:28.965Z,36.17
2022-08-14T07:30:34.025Z,36.01
2022-08-14T07:31:29.179Z,36.82
2022-08-14T07:32:34.203Z,36.74
2022-08-14T07:33:30.240Z,36.63
2022-08-14T07:34:36.280Z,36.59
2022-08-14T07:35:30.420Z,36.71
2022-08-14T07:36:30.534Z,36.30
2022-08-14T07:37:28.056Z,34.98
2022-08-14T07:38:36.314Z,33.98
2022-08-14T07:39:29.081Z,32.70
2022-08-14T07:40:29.889Z,32.68
2022-08-14T07:41:34.194Z,32.15
2022-08-14T07:42:29.099Z,33.08
2022-08-14T07:43:27.996Z,33.81
2022-08-14T07:44:32.226Z,34.58
2022-08-14T07:45:32.010Z,33.56
2022-08-14T07:46:28.464Z,32.55
2022-08-14T07:47:27.970Z,31.37
2022-08-14T07:48:27.999Z,31.27
2022-08-14T07:49:28.147Z,30.70
2022-08-14T07:50:27.921Z,31.77
2022-08-14T07:51:36.866Z,31.37
2022-08-14T07:52:30.605Z,31.16
2022-08-14T07:53:27.901Z,30.76
2022-08-14T07:54:29.962Z,30.27
2022-08-14T07:55:29.055Z,29.77
2022-08-14T07:56:47.510Z,29.28
2022-08-14T07:57:28.873Z,29.58
2022-08-14T07:58:34.229Z,29.11
2022-08-14T07:59:41.505Z,29.31
2022-08-14T08:00:30.980Z,29.39
2022-08-14T08:01:27.813Z,29.77
2022-08-14T08:02:27.861Z,29.60
2022-08-14T08:03:28.066Z,29.41
2022-08-14T08:04:27.797Z,29.63
2022-08-14T08:05:27.781Z,29.74
2022-08-14T08:06:27.769Z,29.83
2022-08-14T08:07:30.023Z,29.63
2022-08-14T08:08:27.773Z,29.05
2022-08-14T08:09:31.787Z,30.09
2022-08-14T08:10:46.851Z,29.23
2022-08-14T08:11:28.745Z,28.92
2022-08-14T08:12:30.830Z,29.64
2022-08-14T08:13:28.590Z,30.54
2022-08-14T08:14:28.410Z,31.35
2022-08-14T08:15:27.681Z,30.85
2022-08-14T08:16:27.674Z,33.02
2022-08-14T08:17:27.678Z,35.50
2022-08-14T08:18:30.928Z,35.31
2022-08-14T08:19:27.645Z,34.70
2022-08-14T08:20:29.275Z,34.31
2022-08-14T08:21:27.629Z,34.47
2022-08-14T08:22:32.441Z,33.23
2022-08-14T08:23:30.357Z,31.72
2022-08-14T08:24:28.596Z,29.77
2022-08-14T08:25:27.600Z,30.14
2022-08-14T08:26:27.576Z,29.64
2022-08-14T08:27:27.579Z,30.02
2022-08-14T08:28:27.556Z,30.63
2022-08-14T08:29:29.157Z,30.25
2022-08-14T08:30:27.551Z,29.24
2022-08-14T08:31:32.952Z,29.11
2022-08-14T08:32:29.887Z,29.22
2022-08-14T08:33:32.047Z,29.53
2022-08-14T08:34:28.503Z,29.15
2022-08-14T08:35:33.035Z,28.92
2022-08-14T08:36:29.862Z,29.38
2022-08-14T08:37:30.687Z,28.31
2022-08-14T08:39:17.266Z,28.77
2022-08-14T08:40:01.948Z,28.47
2022-08-14T08:40:31.487Z,27.89
2022-08-14T08:41:27.483Z,27.19
2022-08-14T08:42:31.617Z,26.81
2022-08-14T08:43:28.415Z,27.01
2022-08-14T08:44:32.663Z,28.01
2022-08-14T08:45:28.443Z,28.92
2022-08-14T08:46:27.413Z,29.44
2022-08-14T08:47:27.376Z,29.64
2022-08-14T08:48:35.534Z,29.94
2022-08-14T08:49:28.387Z,29.80
2022-08-14T08:50:31.619Z,30.90
2022-08-14T08:51:30.744Z,31.67
2022-08-14T08:52:29.020Z,32.29
2022-08-14T08:53:27.319Z,32.81
2022-08-14T08:54:30.940Z,33.80
2022-08-14T08:55:27.300Z,34.08
2022-08-14T08:56:30.148Z,33.68
2022-08-14T08:57:27.278Z,32.10
2022-08-14T08:58:27.275Z,32.07
2022-08-14T08:59:31.730Z,31.65
2022-08-14T09:00:28.311Z,31.72
2022-08-14T09:01:27.304Z,29.75
2022-08-14T09:02:27.559Z,29.83
2022-08-14T09:03:28.148Z,30.68
2022-08-14T09:04:27.244Z,31.98
2022-08-14T09:05:27.205Z,31.21
2022-08-14T09:07:00.379Z,32.87
2022-08-14T09:07:28.256Z,33.12
2022-08-14T09:08:31.308Z,34.18
2022-08-14T09:09:33.104Z,32.17
2022-08-14T09:10:28.159Z,30.58
2022-08-14T09:11:27.158Z,30.88
2022-08-14T09:12:27.167Z,30.58
2022-08-14T09:13:30.445Z,30.44
2022-08-14T09:14:27.120Z,29.86
2022-08-14T09:15:27.105Z,29.56
2022-08-14T09:16:28.100Z,29.45
2022-08-14T09:17:27.095Z,29.44
2022-08-14T09:18:27.097Z,29.24
2022-08-14T09:19:27.086Z,29.60
2022-08-14T09:20:30.661Z,28.63
2022-08-14T09:21:31.304Z,28.94
2022-08-14T09:22:33.026Z,29.15
2022-08-14T09:23:49.447Z,29.02
2022-08-14T09:24:35.395Z,28.16
2022-08-14T09:26:00.703Z,28.24
2022-08-14T09:26:28.625Z,27.55
2022-08-14T09:27:26.999Z,27.71
2022-08-14T09:28:27.027Z,26.35
2022-08-14T09:29:28.744Z,26.95
2022-08-14T09:30:32.303Z,25.98
2022-08-14T09:31:27.958Z,27.72
2022-08-14T09:32:58.603Z,27.55
2022-08-14T09:33:27.941Z,29.16
2022-08-14T09:34:28.092Z,29.27
2022-08-14T09:35:27.794Z,30.00
2022-08-14T09:36:26.934Z,31.91
2022-08-14T09:37:26.909Z,31.45
2022-08-14T09:38:27.363Z,33.00
2022-08-14T09:39:29.175Z,32.33
2022-08-14T09:40:29.351Z,32.70
2022-08-14T09:41:26.890Z,30.73
2022-08-14T09:42:33.947Z,29.93
2022-08-14T09:43:27.950Z,30.31
2022-08-14T09:44:26.846Z,31.24
2022-08-14T09:45:26.870Z,30.61
2022-08-14T09:46:26.837Z,29.61
2022-08-14T09:47:26.818Z,28.91
2022-08-14T09:48:27.459Z,29.26
2022-08-14T09:49:26.795Z,28.05
2022-08-14T09:50:26.998Z,26.34
2022-08-14T09:51:26.799Z,24.89
2022-08-14T09:52:34.253Z,25.27
2022-08-14T09:54:12.670Z,25.18
2022-08-14T09:54:27.751Z,26.59
2022-08-14T09:55:27.786Z,27.28
2022-08-14T09:56:30.707Z,26.56
2022-08-14T09:57:27.654Z,25.38
2022-08-14T09:58:26.721Z,25.37
2022-08-14T09:59:28.043Z,24.87
2022-08-14T10:00:30.352Z,24.57
2022-08-14T10:01:26.706Z,24.17
2022-08-14T10:02:27.998Z,25.47
2022-08-14T10:03:26.673Z,29.02
2022-08-14T10:04:36.563Z,28.42
2022-08-14T10:05:27.655Z,27.59
2022-08-14T10:06:28.084Z,26.07
2022-08-14T10:07:26.637Z,25.07
2022-08-14T10:08:26.962Z,26.71
2022-08-14T10:09:26.667Z,26.70
2022-08-14T10:10:27.613Z,26.67
2022-08-14T10:11:31.099Z,25.69
2022-08-14T10:12:29.323Z,25.43
2022-08-14T10:13:26.789Z,26.92
2022-08-14T10:14:34.788Z,26.90
2022-08-14T10:15:27.934Z,26.25
2022-08-14T10:16:32.131Z,27.12
2022-08-14T10:17:27.681Z,26.67
2022-08-14T10:18:27.541Z,27.84
2022-08-14T10:19:26.613Z,26.68
2022-08-14T10:20:39.488Z,27.15
2022-08-14T10:21:27.533Z,26.42
2022-08-14T10:23:12.518Z,25.84
2022-08-14T10:23:27.678Z,25.25
2022-08-14T10:24:36.391Z,25.02
2022-08-14T10:25:27.656Z,24.02
2022-08-14T10:31:03.090Z,23.73
2022-08-14T10:32:03.096Z,23.83
2022-08-14T10:33:04.060Z,24.53
2022-08-14T10:34:03.074Z,24.44
2022-08-14T10:35:03.038Z,23.84
2022-08-14T10:36:03.844Z,24.02
2022-08-14T10:37:03.065Z,23.82
2022-08-14T10:38:03.019Z,23.96
2022-08-14T10:39:03.016Z,24.99
2022-08-14T10:40:10.382Z,27.25
2022-08-14T10:41:04.075Z,26.76
2022-08-14T10:42:03.019Z,28.00
2022-08-14T10:43:04.217Z,29.97
2022-08-14T10:44:02.984Z,29.31
2022-08-14T10:45:02.958Z,29.54
2022-08-14T10:46:59.008Z,26.67
2022-08-14T10:47:41.685Z,25.35
2022-08-14T10:48:07.637Z,24.69
2022-08-14T10:49:04.843Z,24.03
2022-08-14T10:50:02.911Z,23.74
2022-08-14T10:51:02.909Z,25.42
2022-08-14T10:52:02.899Z,26.93
2022-08-14T10:53:02.912Z,27.04
2022-08-14T10:54:26.084Z,26.75
2022-08-14T10:55:03.885Z,26.97
2022-08-14T10:56:03.691Z,27.05
2022-08-14T10:57:03.643Z,26.60
2022-08-14T10:58:02.886Z,24.07
2022-08-14T10:59:02.874Z,23.75
2022-08-14T11:00:02.982Z,23.16
2022-08-14T11:01:02.823Z,23.43
2022-08-14T11:02:02.830Z,23.34
2022-08-14T11:03:02.821Z,24.02
2022-08-14T11:04:02.862Z,23.72
2022-08-14T11:05:04.988Z,23.52
2022-08-14T11:06:02.795Z,23.60
2022-08-14T11:07:02.777Z,22.81
2022-08-14T11:08:02.811Z,23.00
2022-08-14T11:09:03.805Z,22.74
2022-08-14T11:10:02.759Z,23.40
2022-08-14T11:11:02.841Z,23.61
2022-08-14T11:12:34.071Z,23.72
2022-08-14T11:13:04.573Z,24.04
2022-08-14T11:14:02.722Z,24.83
2022-08-14T11:15:02.987Z,25.06
2022-08-14T11:16:02.724Z,26.33
2022-08-14T11:17:02.761Z,25.56
2022-08-14T11:18:02.699Z,25.27
2022-08-14T11:19:02.823Z,26.42
2022-08-14T11:20:02.830Z,25.46
2022-08-14T11:21:02.668Z,26.35
2022-08-14T11:22:02.681Z,26.04
2022-08-14T11:23:02.667Z,25.54
2022-08-14T11:24:02.642Z,25.66
2022-08-14T11:25:03.631Z,26.74
2022-08-14T11:26:02.631Z,24.99
2022-08-14T11:27:02.636Z,25.07
2022-08-14T11:28:03.284Z,25.66
2022-08-14T11:29:03.602Z,25.75
2022-08-14T11:30:50.742Z,25.97
2022-08-14T11:31:03.667Z,26.28
2022-08-14T11:32:02.598Z,25.04
2022-08-14T11:33:02.633Z,25.20
2022-08-14T11:34:02.654Z,25.37
2022-08-14T11:35:02.551Z,25.46
2022-08-14T11:36:03.145Z,25.19
2022-08-14T11:37:18.247Z,25.09
2022-08-14T11:38:03.605Z,24.82
2022-08-14T11:39:02.547Z,25.29
2022-08-14T11:40:03.768Z,24.79
2022-08-14T11:41:02.495Z,25.18
2022-08-14T11:42:55.259Z,26.07
2022-08-14T11:43:03.491Z,26.98
2022-08-14T11:44:02.478Z,27.89
2022-08-14T11:45:02.484Z,27.60
2022-08-14T11:46:03.699Z,27.60
2022-08-14T11:47:07.017Z,28.26
2022-08-14T11:48:59.061Z,27.00
2022-08-14T11:49:05.499Z,27.59
2022-08-14T11:50:02.430Z,27.22
2022-08-14T11:51:02.433Z,28.09
2022-08-14T11:52:02.412Z,28.08
2022-08-14T11:53:04.468Z,28.11
2022-08-14T11:54:02.427Z,29.61
2022-08-14T11:55:02.409Z,30.69
2022-08-14T11:56:05.478Z,29.41
2022-08-14T11:57:02.373Z,29.38
2022-08-14T11:58:02.404Z,29.86
2022-08-14T11:59:02.353Z,28.70
2022-08-14T12:00:02.423Z,29.21
2022-08-14T12:01:02.341Z,30.01
2022-08-14T12:02:02.351Z,29.45
2022-08-14T12:03:04.345Z,30.14
2022-08-14T12:04:02.353Z,30.51
2022-08-14T12:05:04.222Z,29.83
2022-08-14T12:06:03.300Z,31.02
2022-08-14T12:07:02.314Z,30.72
2022-08-14T12:08:06.760Z,29.55
2022-08-14T12:09:03.283Z,29.74
2022-08-14T12:10:26.073Z,29.91
2022-08-14T12:11:03.279Z,29.42
2022-08-14T12:12:02.254Z,29.57
2022-08-14T12:13:02.246Z,29.35
2022-08-14T12:14:02.241Z,28.48
2022-08-14T12:15:02.261Z,28.96
2022-08-14T12:16:06.273Z,28.29
2022-08-14T12:17:03.210Z,28.67
2022-08-14T12:18:02.210Z,28.94
2022-08-14T12:19:02.215Z,30.86
2022-08-14T12:20:03.145Z,31.74
2022-08-14T12:21:02.181Z,31.46
2022-08-14T12:22:02.196Z,31.93
2022-08-14T12:23:02.183Z,30.93
2022-08-14T12:24:02.161Z,30.72
2022-08-14T12:25:04.150Z,30.59
2022-08-14T12:26:12.165Z,29.94
2022-08-14T12:27:03.131Z,29.86
2022-08-14T12:28:02.506Z,31.25
2022-08-14T12:29:02.385Z,30.98
2022-08-14T12:30:02.411Z,30.86
2022-08-14T12:31:02.106Z,31.46
2022-08-14T12:32:02.094Z,32.07
2022-08-14T12:33:02.084Z,32.44
2022-08-14T12:34:02.081Z,31.84
2022-08-14T12:35:03.128Z,31.93
2022-08-14T12:36:05.551Z,31.04
2022-08-14T12:37:02.052Z,30.65
2022-08-14T12:38:02.049Z,30.36
2022-08-14T12:39:02.055Z,29.80
2022-08-14T12:40:02.258Z,30.27
2022-08-14T12:41:02.026Z,31.47
2022-08-14T12:42:02.010Z,31.86
2022-08-14T12:43:02.001Z,31.26
2022-08-14T12:44:03.068Z,30.08
2022-08-14T12:45:03.857Z,30.47
2022-08-14T12:46:01.988Z,30.99
2022-08-14T12:47:01.972Z,31.28
2022-08-14T12:48:01.963Z,30.81
2022-08-14T12:49:02.991Z,30.52
2022-08-14T12:50:01.946Z,31.49
2022-08-14T12:51:01.953Z,30.41
2022-08-14T12:52:01.928Z,30.08
2022-08-14T12:53:14.451Z,30.28
2022-08-14T12:54:02.912Z,29.99
2022-08-14T12:55:06.370Z,29.70
2022-08-14T12:56:21.360Z,30.08
2022-08-14T12:57:02.887Z,29.90
2022-08-14T12:58:01.938Z,30.18